createdAt,value
2023-05-11T00:00:28.277Z,10.20
2023-05-11T00:01:06.912Z,10.20
2023-05-11T00:01:38.714Z,10.20
2023-05-11T00:02:12.729Z,10.20
2023-05-11T00:02:45.705Z,10.20
2023-05-11T00:03:17.920Z,10.20
2023-05-11T00:03:50.862Z,10.20
2023-05-11T00:04:22.715Z,10.20
2023-05-11T00:04:54.647Z,10.30
2023-05-11T00:05:26.563Z,10.20
2023-05-11T00:05:59.367Z,10.30
2023-05-11T00:06:32.129Z,10.30
2023-05-11T00:07:03.928Z,10.30
2023-05-11T00:07:38.388Z,10.30
2023-05-11T00:08:10.334Z,10.30
2023-05-11T00:08:42.133Z,10.20
2023-05-11T00:09:14.873Z,10.20
2023-05-11T00:09:46.687Z,10.20
2023-05-11T00:10:18.871Z,10.20
2023-05-11T00:10:51.814Z,10.20
2023-05-11T00:11:23.696Z,10.20
2023-05-11T00:11:55.534Z,10.20
2023-05-11T00:12:27.314Z,10.20
2023-05-11T00:13:00.067Z,10.20
2023-05-11T00:13:32.243Z,10.20
2023-05-11T00:14:04.331Z,10.20
2023-05-11T00:14:37.158Z,10.20
2023-05-11T00:15:09.645Z,10.20
2023-05-11T00:15:41.511Z,10.20
2023-05-11T00:16:14.686Z,10.20
2023-05-11T00:16:46.506Z,10.20
2023-05-11T00:17:19.392Z,10.20
2023-05-11T00:17:52.177Z,10.20
2023-05-11T00:18:24.156Z,10.20
2023-05-11T00:18:56.104Z,10.20
2023-05-11T00:19:31.320Z,10.20
2023-05-11T00:20:03.472Z,10.20
2023-05-11T00:20:35.403Z,10.20
2023-05-11T00:21:08.444Z,10.20
2023-05-11T00:21:40.231Z,10.20
2023-05-11T00:22:12.250Z,10.20
2023-05-11T00:22:45.382Z,10.20
2023-05-11T00:23:18.140Z,10.20
2023-05-11T00:23:49.990Z,10.20
2023-05-11T00:24:21.831Z,10.20
2023-05-11T00:24:53.635Z,10.20
2023-05-11T00:25:26.371Z,10.20
2023-05-11T00:25:58.163Z,10.20
2023-05-11T00:26:29.971Z,10.10
2023-05-11T00:27:02.780Z,10.10
2023-05-11T00:27:34.676Z,10.10
2023-05-11T00:28:07.478Z,10.10
2023-05-11T00:28:40.300Z,10.10
2023-05-11T00:29:12.192Z,10.10
2023-05-11T00:29:44.133Z,10.10
2023-05-11T00:30:17.485Z,10.10
2023-05-11T00:30:49.587Z,10.10
2023-05-11T00:31:21.473Z,10.10
2023-05-11T00:31:54.349Z,10.10
2023-05-11T00:32:26.228Z,10.10
2023-05-11T00:32:58.387Z,10.10
2023-05-11T00:33:31.216Z,10.10
2023-05-11T00:34:03.055Z,10.00
2023-05-11T00:34:34.901Z,10.00
2023-05-11T00:35:07.936Z,10.00
2023-05-11T00:35:40.835Z,10.00
2023-05-11T00:36:12.630Z,10.00
2023-05-11T00:36:44.439Z,10.00
2023-05-11T00:37:17.217Z,10.00
2023-05-11T00:37:50.423Z,10.00
2023-05-11T00:38:22.177Z,10.00
2023-05-11T00:38:54.926Z,10.00
2023-05-11T00:39:26.725Z,10.00
2023-05-11T00:39:58.562Z,10.00
2023-05-11T00:40:32.736Z,10.20
2023-05-11T00:41:04.534Z,10.10
2023-05-11T00:41:36.343Z,10.10
2023-05-11T00:42:09.100Z,10.10
2023-05-11T00:42:40.882Z,10.10
2023-05-11T00:43:12.807Z,10.10
2023-05-11T00:43:45.550Z,10.10
2023-05-11T00:44:17.353Z,10.10
2023-05-11T00:44:49.185Z,10.00
2023-05-11T00:45:21.961Z,10.00
2023-05-11T00:45:53.764Z,10.00
2023-05-11T00:46:26.269Z,10.00
2023-05-11T00:46:58.385Z,10.00
2023-05-11T00:47:31.890Z,10.00
2023-05-11T00:48:04.214Z,10.10
2023-05-11T00:48:36.097Z,10.10
2023-05-11T00:49:09.564Z,10.10
2023-05-11T00:49:41.951Z,10.10
2023-05-11T00:50:14.103Z,10.10
2023-05-11T00:50:47.695Z,10.10
2023-05-11T00:51:19.813Z,10.20
2023-05-11T00:51:51.811Z,10.10
2023-05-11T00:52:24.755Z,10.10
2023-05-11T00:52:58.554Z,10.10
2023-05-11T00:53:30.545Z,10.10
2023-05-11T00:54:03.522Z,10.10
2023-05-11T00:54:36.024Z,10.10
2023-05-11T00:55:08.624Z,10.10
2023-05-11T00:55:41.904Z,10.10
2023-05-11T00:56:14.219Z,10.10
2023-05-11T00:56:46.038Z,10.10
2023-05-11T00:57:18.853Z,10.10
2023-05-11T00:57:50.773Z,10.10
2023-05-11T00:58:22.919Z,10.10
2023-05-11T00:58:56.175Z,10.10
2023-05-11T00:59:27.985Z,10.10
2023-05-11T01:00:02.488Z,10.10
2023-05-11T01:00:36.621Z,10.10
2023-05-11T01:01:09.007Z,10.10
2023-05-11T01:01:41.012Z,10.10
2023-05-11T01:02:12.831Z,10.10
2023-05-11T01:02:46.194Z,10.10
2023-05-11T01:03:18.449Z,10.10
2023-05-11T01:03:50.322Z,10.10
2023-05-11T01:04:22.294Z,10.10
2023-05-11T01:04:55.069Z,10.10
2023-05-11T01:05:35.059Z,10.10
2023-05-11T01:06:11.634Z,10.20
2023-05-11T01:06:52.513Z,10.20
2023-05-11T01:07:30.930Z,10.20
2023-05-11T01:08:13.374Z,10.20
2023-05-11T01:08:50.986Z,10.20
2023-05-11T01:09:32.269Z,10.20
2023-05-11T01:10:12.054Z,10.20
2023-05-11T01:10:48.769Z,10.20
2023-05-11T01:11:29.192Z,10.10
2023-05-11T01:12:08.005Z,10.10
2023-05-11T01:12:48.143Z,10.20
2023-05-11T01:13:28.277Z,10.20
2023-05-11T01:14:06.547Z,10.20
2023-05-11T01:14:44.157Z,10.20
2023-05-11T01:15:24.388Z,10.20
2023-05-11T01:15:57.071Z,10.20
2023-05-11T01:16:33.769Z,10.10
2023-05-11T01:17:10.576Z,10.10
2023-05-11T01:17:49.636Z,10.20
2023-05-11T01:18:26.629Z,10.20
2023-05-11T01:19:04.060Z,10.10
2023-05-11T01:19:49.461Z,10.10
2023-05-11T01:20:29.609Z,10.10
2023-05-11T01:21:02.506Z,10.10
2023-05-11T01:21:36.670Z,10.10
2023-05-11T01:22:25.828Z,10.10
2023-05-11T01:23:28.112Z,10.00
2023-05-11T01:24:23.726Z,10.00
2023-05-11T01:25:09.927Z,10.10
2023-05-11T01:25:56.753Z,10.10
2023-05-11T01:26:44.765Z,10.10
2023-05-11T01:27:58.714Z,10.10
2023-05-11T01:28:51.206Z,10.10
2023-05-11T01:29:48.383Z,10.20
2023-05-11T01:30:34.483Z,10.10
2023-05-11T01:31:11.208Z,10.10
2023-05-11T01:31:46.813Z,10.10
2023-05-11T01:32:22.143Z,10.10
2023-05-11T01:32:57.029Z,10.10
2023-05-11T01:33:33.548Z,10.10
2023-05-11T01:34:10.049Z,10.10
2023-05-11T01:34:44.198Z,10.10
2023-05-11T01:35:20.920Z,10.10
2023-05-11T01:36:00.725Z,10.10
2023-05-11T01:36:36.867Z,10.10
2023-05-11T01:37:12.680Z,10.10
2023-05-11T01:37:49.059Z,10.10
2023-05-11T01:38:24.381Z,10.10
2023-05-11T01:39:01.227Z,10.10
2023-05-11T01:39:35.973Z,10.10
2023-05-11T01:40:14.512Z,10.10
2023-05-11T01:40:50.728Z,10.10
2023-05-11T01:41:26.312Z,10.10
2023-05-11T01:42:02.410Z,10.10
2023-05-11T01:42:40.177Z,10.10
2023-05-11T01:43:15.336Z,10.10
2023-05-11T01:43:52.856Z,10.10
2023-05-11T01:44:30.724Z,10.10
2023-05-11T01:45:05.470Z,10.10
2023-05-11T01:45:42.448Z,10.10
2023-05-11T01:46:16.999Z,10.10
2023-05-11T01:46:51.355Z,10.10
2023-05-11T01:47:25.247Z,10.10
2023-05-11T01:47:59.385Z,10.00
2023-05-11T01:48:36.949Z,10.00
2023-05-11T01:49:09.791Z,10.00
2023-05-11T01:49:44.112Z,10.00
2023-05-11T01:50:18.939Z,10.00
2023-05-11T01:50:53.118Z,10.00
2023-05-11T01:51:27.897Z,10.00
2023-05-11T01:52:02.788Z,10.00
2023-05-11T01:52:37.833Z,10.00
2023-05-11T01:53:10.750Z,10.00
2023-05-11T01:53:43.819Z,10.00
2023-05-11T01:54:19.856Z,10.00
2023-05-11T01:54:54.572Z,10.00
2023-05-11T01:55:27.925Z,10.00
2023-05-11T01:56:01.473Z,10.00
2023-05-11T01:56:36.106Z,10.00
2023-05-11T01:57:09.444Z,10.00
2023-05-11T01:57:41.373Z,10.00
2023-05-11T01:58:16.458Z,10.00
2023-05-11T01:58:49.534Z,10.00
2023-05-11T01:59:22.254Z,10.00
2023-05-11T01:59:56.830Z,10.00
2023-05-11T02:00:28.942Z,10.00
2023-05-11T02:01:04.522Z,10.00
2023-05-11T02:01:36.868Z,10.00
2023-05-11T02:02:09.951Z,9.90
2023-05-11T02:02:44.944Z,10.00
2023-05-11T02:03:19.034Z,10.00
2023-05-11T02:03:53.569Z,10.00
2023-05-11T02:04:27.603Z,10.10
2023-05-11T02:05:00.751Z,10.00
2023-05-11T02:05:35.280Z,10.00
2023-05-11T02:06:10.687Z,10.00
2023-05-11T02:06:44.578Z,10.00
2023-05-11T02:07:18.487Z,10.00
2023-05-11T02:07:53.564Z,10.00
2023-05-11T02:08:26.269Z,10.00
2023-05-11T02:09:00.119Z,10.00
2023-05-11T02:09:34.781Z,10.00
2023-05-11T02:10:08.008Z,10.00
2023-05-11T02:10:41.181Z,10.10
2023-05-11T02:11:14.569Z,10.00
2023-05-11T02:11:49.590Z,10.10
2023-05-11T02:12:22.561Z,10.10
2023-05-11T02:12:55.450Z,10.10
2023-05-11T02:13:29.580Z,10.10
2023-05-11T02:14:03.017Z,10.00
2023-05-11T02:14:36.510Z,10.00
2023-05-11T02:15:10.897Z,10.00
2023-05-11T02:15:45.703Z,10.00
2023-05-11T02:16:20.393Z,10.00
2023-05-11T02:16:54.316Z,10.00
2023-05-11T02:17:27.900Z,10.00
2023-05-11T02:18:00.020Z,10.00
2023-05-11T02:18:33.941Z,9.90
2023-05-11T02:19:07.334Z,9.90
2023-05-11T02:19:42.034Z,9.90
2023-05-11T02:20:16.886Z,9.90
2023-05-11T02:20:49.444Z,10.00
2023-05-11T02:21:22.519Z,10.00
2023-05-11T02:21:56.588Z,10.10
2023-05-11T02:22:29.561Z,10.00
2023-05-11T02:23:02.361Z,10.00
2023-05-11T02:23:35.552Z,10.00
2023-05-11T02:24:08.502Z,10.00
2023-05-11T02:24:41.273Z,10.00
2023-05-11T02:25:13.958Z,10.00
2023-05-11T02:25:47.907Z,10.00
2023-05-11T02:26:19.799Z,10.00
2023-05-11T02:26:51.744Z,9.90
2023-05-11T02:27:24.338Z,10.00
2023-05-11T02:27:57.117Z,10.00
2023-05-11T02:28:28.903Z,10.00
2023-05-11T02:29:00.730Z,10.00
2023-05-11T02:29:33.858Z,9.90
2023-05-11T02:30:08.520Z,10.00
2023-05-11T02:30:45.688Z,10.00
2023-05-11T02:31:23.037Z,9.90
2023-05-11T02:31:57.699Z,10.00
2023-05-11T02:32:33.089Z,9.90
2023-05-11T02:33:09.293Z,10.00
2023-05-11T02:33:46.580Z,10.00
2023-05-11T02:34:23.623Z,10.00
2023-05-11T02:35:01.678Z,9.90
2023-05-11T02:35:38.143Z,9.90
2023-05-11T02:36:14.614Z,9.90
2023-05-11T02:36:49.059Z,9.90
2023-05-11T02:37:25.295Z,10.00
2023-05-11T02:38:02.262Z,9.90
2023-05-11T02:38:35.515Z,9.90
2023-05-11T02:39:09.645Z,9.90
2023-05-11T02:39:45.656Z,9.90
2023-05-11T02:40:19.997Z,9.90
2023-05-11T02:40:57.407Z,9.90
2023-05-11T02:41:31.497Z,9.90
2023-05-11T02:42:12.595Z,9.90
2023-05-11T02:42:48.780Z,9.90
2023-05-11T02:43:26.116Z,9.90
2023-05-11T02:44:02.732Z,9.90
2023-05-11T02:44:37.850Z,9.90
2023-05-11T02:45:13.278Z,9.90
2023-05-11T02:45:48.052Z,9.90
2023-05-11T02:46:33.232Z,9.90
2023-05-11T02:47:08.693Z,9.90
2023-05-11T02:47:45.663Z,9.90
2023-05-11T02:48:22.505Z,9.90
2023-05-11T02:49:00.845Z,9.90
2023-05-11T02:49:36.035Z,9.90
2023-05-11T02:50:09.689Z,9.90
2023-05-11T02:50:44.196Z,9.90
2023-05-11T02:51:18.942Z,10.00
2023-05-11T02:51:52.577Z,9.90
2023-05-11T02:52:27.939Z,9.90
2023-05-11T02:53:07.869Z,9.90
2023-05-11T02:53:43.100Z,10.00
2023-05-11T02:54:16.960Z,10.00
2023-05-11T02:54:51.240Z,10.00
2023-05-11T02:55:24.296Z,10.00
2023-05-11T02:55:58.030Z,10.00
2023-05-11T02:56:30.057Z,10.10
2023-05-11T02:57:03.728Z,10.00
2023-05-11T02:57:37.149Z,10.00
2023-05-11T02:58:09.419Z,10.00
2023-05-11T02:58:41.416Z,10.00
2023-05-11T02:59:15.248Z,10.00
2023-05-11T02:59:47.804Z,10.00
2023-05-11T03:00:20.206Z,10.00
2023-05-11T03:00:53.393Z,10.00
2023-05-11T03:01:28.846Z,10.00
2023-05-11T03:02:02.583Z,10.00
2023-05-11T03:02:34.644Z,10.00
2023-05-11T03:03:07.955Z,10.00
2023-05-11T03:03:39.883Z,10.00
2023-05-11T03:04:11.938Z,10.00
2023-05-11T03:04:44.706Z,10.00
2023-05-11T03:05:16.801Z,9.90
2023-05-11T03:05:48.618Z,9.90
2023-05-11T03:06:21.395Z,9.90
2023-05-11T03:06:53.216Z,9.90
2023-05-11T03:07:25.772Z,9.90
2023-05-11T03:08:00.159Z,9.90
2023-05-11T03:08:32.092Z,9.90
2023-05-11T03:09:04.036Z,9.90
2023-05-11T03:09:37.002Z,9.90
2023-05-11T03:10:09.966Z,9.90
2023-05-11T03:10:42.434Z,9.90
2023-05-11T03:11:17.810Z,9.90
2023-05-11T03:11:50.447Z,9.90
2023-05-11T03:12:22.550Z,9.90
2023-05-11T03:12:55.820Z,9.90
2023-05-11T03:13:28.578Z,9.90
2023-05-11T03:14:01.483Z,9.90
2023-05-11T03:14:35.954Z,9.90
2023-05-11T03:15:11.823Z,9.90
2023-05-11T03:15:44.019Z,9.90
2023-05-11T03:16:19.610Z,9.90
2023-05-11T03:16:55.658Z,9.80
2023-05-11T03:17:28.507Z,9.80
2023-05-11T03:18:02.739Z,9.80
2023-05-11T03:18:36.125Z,9.80
2023-05-11T03:19:08.488Z,9.80
2023-05-11T03:19:42.358Z,9.80
2023-05-11T03:20:15.882Z,9.80
2023-05-11T03:20:50.058Z,9.80
2023-05-11T03:21:24.424Z,9.70
2023-05-11T03:21:58.567Z,9.70
2023-05-11T03:22:31.605Z,9.70
2023-05-11T03:23:06.357Z,9.80
2023-05-11T03:23:39.554Z,9.80
2023-05-11T03:24:12.765Z,9.80
2023-05-11T03:24:45.986Z,9.80
2023-05-11T03:25:18.252Z,9.80
2023-05-11T03:25:50.375Z,9.70
2023-05-11T03:26:24.767Z,9.80
2023-05-11T03:26:57.435Z,9.80
2023-05-11T03:27:29.903Z,9.70
2023-05-11T03:28:04.445Z,9.70
2023-05-11T03:28:37.531Z,9.70
2023-05-11T03:29:09.993Z,9.70
2023-05-11T03:29:45.155Z,9.70
2023-05-11T03:30:18.408Z,9.70
2023-05-11T03:30:52.771Z,9.70
2023-05-11T03:31:25.699Z,9.70
2023-05-11T03:31:59.005Z,9.70
2023-05-11T03:32:30.871Z,9.80
2023-05-11T03:33:03.744Z,9.80
2023-05-11T03:33:35.750Z,9.80
2023-05-11T03:34:07.556Z,9.80
2023-05-11T03:34:40.463Z,9.70
2023-05-11T03:35:12.296Z,9.80
2023-05-11T03:35:45.586Z,9.70
2023-05-11T03:36:19.195Z,9.80
2023-05-11T03:36:52.584Z,9.70
2023-05-11T03:37:24.834Z,9.70
2023-05-11T03:37:59.194Z,9.70
2023-05-11T03:38:32.256Z,9.70
2023-05-11T03:39:04.812Z,9.60
2023-05-11T03:39:39.661Z,9.60
2023-05-11T03:40:13.266Z,9.70
2023-05-11T03:40:47.117Z,9.70
2023-05-11T03:41:21.394Z,9.70
2023-05-11T03:41:54.401Z,9.70
2023-05-11T03:42:27.680Z,9.70
2023-05-11T03:43:03.501Z,9.70
2023-05-11T03:43:36.048Z,9.70
2023-05-11T03:44:10.777Z,9.60
2023-05-11T03:44:46.082Z,9.60
2023-05-11T03:45:20.696Z,9.60
2023-05-11T03:45:53.949Z,9.60
2023-05-11T03:46:26.974Z,9.60
2023-05-11T03:47:02.160Z,9.60
2023-05-11T03:47:35.574Z,9.60
2023-05-11T03:48:08.786Z,9.60
2023-05-11T03:48:42.075Z,9.60
2023-05-11T03:49:15.541Z,9.60
2023-05-11T03:49:48.715Z,9.60
2023-05-11T03:50:23.125Z,9.60
2023-05-11T03:50:55.242Z,9.60
2023-05-11T03:51:27.129Z,9.60
2023-05-11T03:52:00.702Z,9.60
2023-05-11T03:52:32.666Z,9.60
2023-05-11T03:53:04.848Z,9.60
2023-05-11T03:53:37.938Z,9.60
2023-05-11T03:54:10.361Z,9.60
2023-05-11T03:54:43.221Z,9.60
2023-05-11T03:55:16.158Z,9.60
2023-05-11T03:55:47.976Z,9.60
2023-05-11T03:56:19.759Z,9.60
2023-05-11T03:56:52.757Z,9.70
2023-05-11T03:57:25.998Z,9.70
2023-05-11T03:57:57.988Z,9.70
2023-05-11T03:58:31.607Z,9.70
2023-05-11T03:59:03.729Z,9.70
2023-05-11T03:59:35.494Z,9.70
2023-05-11T04:00:10.911Z,9.70
2023-05-11T04:00:42.908Z,9.70
2023-05-11T04:01:16.001Z,9.80
2023-05-11T04:01:51.457Z,9.80
2023-05-11T04:02:24.984Z,9.90
2023-05-11T04:02:58.024Z,9.70
2023-05-11T04:03:30.235Z,9.70
2023-05-11T04:04:02.317Z,9.60
2023-05-11T04:04:35.532Z,9.60
2023-05-11T04:05:08.448Z,9.70
2023-05-11T04:05:41.215Z,9.70
2023-05-11T04:06:13.949Z,9.70
2023-05-11T04:06:46.150Z,9.70
2023-05-11T04:07:18.006Z,9.60
2023-05-11T04:07:51.756Z,9.60
2023-05-11T04:08:23.587Z,9.60
2023-05-11T04:08:55.430Z,9.60
2023-05-11T04:09:28.363Z,9.60
2023-05-11T04:10:00.268Z,9.60
2023-05-11T04:10:33.117Z,9.60
2023-05-11T04:11:04.913Z,9.60
2023-05-11T04:11:37.227Z,9.60
2023-05-11T04:12:10.124Z,9.60
2023-05-11T04:12:41.914Z,9.60
2023-05-11T04:13:13.679Z,9.60
2023-05-11T04:13:45.422Z,9.60
2023-05-11T04:14:18.443Z,9.60
2023-05-11T04:14:50.218Z,9.60
2023-05-11T04:15:22.178Z,9.70
2023-05-11T04:15:54.949Z,9.70
2023-05-11T04:16:26.767Z,9.70
2023-05-11T04:16:58.625Z,9.70
2023-05-11T04:17:32.751Z,9.70
2023-05-11T04:18:04.740Z,9.80
2023-05-11T04:18:36.598Z,9.70
2023-05-11T04:19:09.424Z,9.70
2023-05-11T04:19:41.207Z,9.70
2023-05-11T04:20:13.030Z,9.70
2023-05-11T04:20:45.778Z,9.80
2023-05-11T04:21:17.579Z,9.70
2023-05-11T04:21:49.394Z,9.70
2023-05-11T04:22:21.431Z,9.60
2023-05-11T04:22:54.539Z,9.60
2023-05-11T04:23:26.385Z,9.60
2023-05-11T04:23:58.222Z,9.60
2023-05-11T04:24:30.942Z,9.60
2023-05-11T04:25:02.890Z,9.60
2023-05-11T04:25:34.891Z,9.60
2023-05-11T04:26:07.741Z,9.50
2023-05-11T04:26:39.554Z,9.50
2023-05-11T04:27:11.404Z,9.50
2023-05-11T04:27:44.150Z,9.50
2023-05-11T04:28:16.022Z,9.40
2023-05-11T04:28:47.798Z,9.40
2023-05-11T04:29:20.534Z,9.40
2023-05-11T04:29:52.372Z,9.50
2023-05-11T04:30:24.400Z,9.50
2023-05-11T04:30:58.628Z,9.50
2023-05-11T04:31:30.589Z,9.50
2023-05-11T04:32:02.482Z,9.50
2023-05-11T04:32:36.675Z,9.50
2023-05-11T04:33:08.596Z,9.50
2023-05-11T04:33:40.523Z,9.50
2023-05-11T04:34:13.289Z,9.50
2023-05-11T04:34:45.176Z,9.50
2023-05-11T04:35:17.161Z,9.50
2023-05-11T04:35:51.268Z,9.50
2023-05-11T04:36:23.097Z,9.50
2023-05-11T04:36:55.148Z,9.50
2023-05-11T04:37:27.951Z,9.50
2023-05-11T04:37:59.783Z,9.50
2023-05-11T04:38:31.612Z,9.50
2023-05-11T04:39:06.606Z,9.50
2023-05-11T04:39:39.226Z,9.50
2023-05-11T04:40:11.943Z,9.50
2023-05-11T04:40:44.795Z,9.50
2023-05-11T04:41:16.646Z,9.50
2023-05-11T04:41:48.644Z,9.60
2023-05-11T04:42:21.462Z,9.60
2023-05-11T04:42:53.279Z,9.60
2023-05-11T04:43:25.092Z,9.60
2023-05-11T04:43:57.866Z,9.60
2023-05-11T04:44:29.672Z,9.60
2023-05-11T04:45:01.463Z,9.60
2023-05-11T04:45:33.267Z,9.60
2023-05-11T04:46:06.125Z,9.60
2023-05-11T04:46:38.531Z,9.50
2023-05-11T04:47:10.485Z,9.50
2023-05-11T04:47:44.629Z,9.50
2023-05-11T04:48:19.559Z,9.50
2023-05-11T04:48:52.541Z,9.50
2023-05-11T04:49:25.306Z,9.50
2023-05-11T04:49:57.099Z,9.50
2023-05-11T04:50:28.935Z,9.50
2023-05-11T04:51:05.604Z,9.60
2023-05-11T04:51:37.411Z,9.50
2023-05-11T04:52:09.193Z,9.60
2023-05-11T04:52:41.915Z,9.40
2023-05-11T04:53:13.770Z,9.50
2023-05-11T04:53:45.628Z,9.50
2023-05-11T04:54:18.483Z,9.50
2023-05-11T04:54:50.562Z,9.50
2023-05-11T04:55:22.561Z,9.60
2023-05-11T04:55:55.291Z,9.50
2023-05-11T04:56:27.154Z,9.50
2023-05-11T04:56:58.971Z,9.50
2023-05-11T04:57:31.772Z,9.50
2023-05-11T04:58:03.593Z,9.50
2023-05-11T04:58:35.437Z,9.50
2023-05-11T04:59:08.486Z,9.50
2023-05-11T04:59:40.374Z,9.50
2023-05-11T05:00:12.770Z,9.50
2023-05-11T05:00:44.624Z,9.50
2023-05-11T05:01:17.440Z,9.50
2023-05-11T05:01:49.307Z,9.50
2023-05-11T05:02:21.311Z,9.50
2023-05-11T05:02:55.568Z,9.50
2023-05-11T05:03:27.562Z,9.50
2023-05-11T05:03:59.400Z,9.40
2023-05-11T05:04:33.533Z,9.50
2023-05-11T05:05:08.529Z,9.50
2023-05-11T05:05:41.405Z,9.50
2023-05-11T05:06:13.241Z,9.50
2023-05-11T05:06:45.608Z,9.50
2023-05-11T05:07:18.357Z,9.50
2023-05-11T05:07:50.203Z,9.50
2023-05-11T05:08:22.041Z,9.50
2023-05-11T05:08:54.793Z,9.50
2023-05-11T05:09:26.610Z,9.60
2023-05-11T05:09:58.485Z,9.60
2023-05-11T05:10:31.364Z,9.60
2023-05-11T05:11:03.364Z,9.60
2023-05-11T05:11:35.145Z,9.60
2023-05-11T05:12:08.166Z,9.60
2023-05-11T05:12:40.419Z,9.60
2023-05-11T05:13:12.280Z,9.60
2023-05-11T05:13:45.242Z,9.60
2023-05-11T05:14:17.073Z,9.60
2023-05-11T05:14:48.884Z,9.60
2023-05-11T05:15:21.800Z,9.50
2023-05-11T05:15:53.641Z,9.50
2023-05-11T05:16:25.694Z,9.50
2023-05-11T05:17:00.615Z,9.50
2023-05-11T05:17:32.570Z,9.60
2023-05-11T05:18:06.221Z,9.60
2023-05-11T05:18:39.080Z,9.60
2023-05-11T05:19:12.624Z,9.60
2023-05-11T05:19:44.422Z,9.60
2023-05-11T05:20:17.322Z,9.60
2023-05-11T05:20:49.249Z,9.60
2023-05-11T05:21:21.079Z,9.60
2023-05-11T05:21:53.826Z,9.60
2023-05-11T05:22:25.957Z,9.60
2023-05-11T05:22:58.879Z,9.60
2023-05-11T05:23:31.738Z,9.60
2023-05-11T05:24:04.264Z,9.60
2023-05-11T05:24:36.156Z,9.60
2023-05-11T05:25:10.287Z,9.50
2023-05-11T05:25:42.062Z,9.50
2023-05-11T05:26:13.821Z,9.50
2023-05-11T05:26:46.586Z,9.50
2023-05-11T05:27:18.588Z,9.50
2023-05-11T05:27:50.450Z,9.40
2023-05-11T05:28:23.286Z,9.40
2023-05-11T05:28:55.108Z,9.40
2023-05-11T05:29:26.877Z,9.40
2023-05-11T05:29:59.859Z,9.40
2023-05-11T05:30:31.792Z,9.40
2023-05-11T05:31:03.765Z,9.40
2023-05-11T05:31:36.657Z,9.40
2023-05-11T05:32:08.464Z,9.40
2023-05-11T05:32:40.444Z,9.40
2023-05-11T05:33:14.827Z,9.40
2023-05-11T05:33:46.754Z,9.50
2023-05-11T05:34:18.533Z,9.50
2023-05-11T05:34:51.410Z,9.40
2023-05-11T05:35:23.307Z,9.40
2023-05-11T05:35:55.267Z,9.40
2023-05-11T05:36:28.077Z,9.40
2023-05-11T05:37:00.596Z,9.40
2023-05-11T05:37:32.363Z,9.40
2023-05-11T05:38:05.132Z,9.40
2023-05-11T05:38:36.936Z,9.40
2023-05-11T05:39:10.053Z,9.40
2023-05-11T05:39:42.815Z,9.40
2023-05-11T05:40:15.108Z,9.40
2023-05-11T05:40:46.973Z,9.40
2023-05-11T05:41:22.256Z,9.40
2023-05-11T05:41:54.091Z,9.40
2023-05-11T05:42:26.043Z,9.40
2023-05-11T05:42:57.856Z,9.50
2023-05-11T05:43:30.621Z,9.40
2023-05-11T05:44:02.501Z,9.40
2023-05-11T05:44:34.443Z,9.40
2023-05-11T05:45:08.294Z,9.40
2023-05-11T05:45:40.141Z,9.50
2023-05-11T05:46:12.970Z,9.50
2023-05-11T05:46:45.005Z,9.50
2023-05-11T05:47:16.785Z,9.50
2023-05-11T05:47:51.630Z,9.50
2023-05-11T05:48:24.956Z,9.60
2023-05-11T05:48:56.836Z,9.60
2023-05-11T05:49:29.642Z,9.60
2023-05-11T05:50:01.488Z,9.60
2023-05-11T05:50:33.266Z,9.60
2023-05-11T05:51:06.201Z,9.60
2023-05-11T05:51:38.064Z,9.60
2023-05-11T05:52:10.259Z,9.60
2023-05-11T05:52:43.004Z,9.60
2023-05-11T05:53:14.813Z,9.60
2023-05-11T05:53:46.633Z,9.60
2023-05-11T05:54:19.478Z,9.60
2023-05-11T05:54:51.274Z,9.60
2023-05-11T05:55:23.805Z,9.60
2023-05-11T05:55:56.584Z,9.60
2023-05-11T05:56:28.366Z,9.60
2023-05-11T05:57:00.376Z,9.50
2023-05-11T05:57:33.153Z,9.50
2023-05-11T05:58:04.950Z,9.50
2023-05-11T05:58:36.693Z,9.40
2023-05-11T05:59:10.713Z,9.40
2023-05-11T05:59:42.488Z,9.40
2023-05-11T06:00:15.271Z,9.40
2023-05-11T06:00:49.084Z,9.40
2023-05-11T06:01:21.843Z,9.40
2023-05-11T06:01:53.631Z,9.50
2023-05-11T06:02:26.491Z,9.50
2023-05-11T06:02:58.556Z,9.40
2023-05-11T06:03:32.032Z,9.40
2023-05-11T06:04:05.181Z,9.40
2023-05-11T06:04:37.121Z,9.40
2023-05-11T06:05:09.928Z,9.40
2023-05-11T06:05:42.745Z,9.40
2023-05-11T06:06:14.572Z,9.30
2023-05-11T06:06:46.437Z,9.40
2023-05-11T06:07:19.209Z,9.30
2023-05-11T06:08:01.742Z,9.30
2023-05-11T06:08:41.632Z,9.30
2023-05-11T06:09:13.595Z,9.30
2023-05-11T06:09:45.392Z,9.40
2023-05-11T06:10:18.432Z,9.30
2023-05-11T06:10:50.507Z,9.30
2023-05-11T06:11:22.501Z,9.30
2023-05-11T06:11:55.267Z,9.30
2023-05-11T06:12:27.064Z,9.30
2023-05-11T06:12:58.854Z,9.30
2023-05-11T06:13:31.638Z,9.30
2023-05-11T06:14:03.555Z,9.40
2023-05-11T06:14:35.332Z,9.40
2023-05-11T06:15:09.247Z,9.40
2023-05-11T06:15:43.361Z,9.50
2023-05-11T06:16:15.803Z,9.40
2023-05-11T06:16:48.677Z,9.50
2023-05-11T06:17:20.509Z,9.50
2023-05-11T06:17:52.318Z,9.50
2023-05-11T06:18:25.146Z,9.50
2023-05-11T06:18:58.374Z,9.50
2023-05-11T06:19:30.434Z,9.50
2023-05-11T06:20:03.240Z,9.50
2023-05-11T06:20:35.061Z,9.50
2023-05-11T06:21:07.838Z,9.50
2023-05-11T06:21:41.632Z,9.50
2023-05-11T06:22:13.498Z,9.50
2023-05-11T06:22:46.247Z,9.60
2023-05-11T06:23:18.027Z,9.50
2023-05-11T06:23:49.885Z,9.50
2023-05-11T06:24:22.756Z,9.50
2023-05-11T06:24:54.614Z,9.60
2023-05-11T06:25:27.575Z,9.60
2023-05-11T06:26:00.324Z,9.60
2023-05-11T06:26:32.095Z,9.50
2023-05-11T06:27:03.877Z,9.50
2023-05-11T06:27:36.624Z,9.50
2023-05-11T06:28:08.757Z,9.50
2023-05-11T06:28:40.583Z,9.50
2023-05-11T06:29:13.316Z,9.50
2023-05-11T06:29:45.151Z,9.50
2023-05-11T06:30:18.075Z,9.50
2023-05-11T06:30:50.017Z,9.50
2023-05-11T06:31:23.043Z,9.50
2023-05-11T06:31:56.199Z,9.50
2023-05-11T06:32:28.059Z,9.50
2023-05-11T06:33:01.169Z,9.50
2023-05-11T06:33:33.087Z,9.50
2023-05-11T06:34:06.257Z,9.50
2023-05-11T06:34:39.921Z,9.50
2023-05-11T06:35:11.990Z,9.50
2023-05-11T06:35:43.819Z,9.50
2023-05-11T06:36:16.553Z,9.50
2023-05-11T06:36:48.652Z,9.50
2023-05-11T06:37:20.573Z,9.60
2023-05-11T06:37:53.310Z,9.60
2023-05-11T06:38:25.166Z,9.50
2023-05-11T06:38:57.909Z,9.60
2023-05-11T06:39:29.698Z,9.60
2023-05-11T06:40:01.709Z,9.60
2023-05-11T06:40:34.472Z,9.60
2023-05-11T06:41:06.555Z,9.60
2023-05-11T06:41:39.509Z,9.60
2023-05-11T06:42:11.350Z,9.60
2023-05-11T06:42:43.355Z,9.60
2023-05-11T06:43:16.280Z,9.60
2023-05-11T06:43:48.093Z,9.60
2023-05-11T06:44:19.966Z,9.60
2023-05-11T06:44:52.829Z,9.60
2023-05-11T06:45:24.701Z,9.60
2023-05-11T06:45:56.542Z,9.70
2023-05-11T06:46:29.580Z,9.60
2023-05-11T06:47:01.450Z,9.60
2023-05-11T06:47:34.235Z,9.60
2023-05-11T06:48:06.578Z,9.60
2023-05-11T06:48:38.409Z,9.60
2023-05-11T06:49:12.603Z,9.60
2023-05-11T06:49:44.985Z,9.60
2023-05-11T06:50:17.899Z,9.70
2023-05-11T06:50:50.858Z,9.60
2023-05-11T06:51:24.062Z,9.60
2023-05-11T06:51:55.901Z,9.60
2023-05-11T06:52:27.717Z,9.60
2023-05-11T06:53:00.474Z,9.70
2023-05-11T06:53:32.252Z,9.60
2023-05-11T06:54:05.152Z,9.60
2023-05-11T06:54:36.996Z,9.60
2023-05-11T06:55:13.035Z,9.60
2023-05-11T06:55:46.011Z,9.60
2023-05-11T06:56:17.966Z,9.60
2023-05-11T06:56:51.034Z,9.60
2023-05-11T06:57:23.016Z,9.60
2023-05-11T06:57:54.848Z,9.60
2023-05-11T06:58:27.614Z,9.60
2023-05-11T06:58:59.444Z,9.50
2023-05-11T06:59:32.340Z,9.60
2023-05-11T07:00:06.170Z,9.60
2023-05-11T07:00:37.992Z,9.50
2023-05-11T07:01:11.852Z,9.60
2023-05-11T07:01:44.106Z,9.50
2023-05-11T07:02:15.991Z,9.50
2023-05-11T07:02:48.777Z,9.60
2023-05-11T07:03:20.605Z,9.60
2023-05-11T07:03:54.960Z,9.60
2023-05-11T07:04:29.812Z,9.60
2023-05-11T07:05:01.784Z,9.60
2023-05-11T07:05:33.907Z,9.60
2023-05-11T07:06:06.743Z,9.60
2023-05-11T07:06:38.535Z,9.60
2023-05-11T07:07:12.213Z,9.60
2023-05-11T07:07:44.040Z,9.50
2023-05-11T07:08:15.900Z,9.60
2023-05-11T07:08:48.686Z,9.60
2023-05-11T07:09:20.931Z,9.60
2023-05-11T07:09:52.701Z,9.60
2023-05-11T07:10:26.088Z,9.60
2023-05-11T07:10:58.180Z,9.60
2023-05-11T07:11:31.065Z,9.70
2023-05-11T07:12:03.951Z,9.70
2023-05-11T07:12:35.710Z,9.60
2023-05-11T07:13:07.563Z,9.60
2023-05-11T07:13:41.021Z,9.60
2023-05-11T07:14:15.592Z,9.60
2023-05-11T07:14:48.298Z,9.60
2023-05-11T07:15:20.645Z,9.60
2023-05-11T07:15:55.867Z,9.60
2023-05-11T07:16:29.184Z,9.60
2023-05-11T07:17:01.088Z,9.60
2023-05-11T07:17:33.836Z,9.60
2023-05-11T07:18:05.808Z,9.60
2023-05-11T07:18:37.725Z,9.60
2023-05-11T07:19:10.690Z,9.60
2023-05-11T07:19:44.297Z,9.70
2023-05-11T07:20:17.366Z,9.70
2023-05-11T07:20:50.057Z,9.70
2023-05-11T07:21:23.016Z,9.70